createdAt,value
2023-06-23T00:01:05.643Z,92.8
2023-06-23T00:11:05.607Z,93.8
2023-06-23T00:21:05.548Z,93.2
2023-06-23T00:31:05.532Z,92.6
2023-06-23T00:41:05.494Z,92.6
2023-06-23T00:51:05.472Z,92.8
2023-06-23T01:01:05.427Z,92.8
2023-06-23T01:11:05.393Z,93.2
2023-06-23T01:21:05.407Z,93.2
2023-06-23T01:31:05.320Z,92.6
2023-06-23T01:41:05.315Z,92
2023-06-23T01:51:05.257Z,92.2
2023-06-23T02:01:05.315Z,92.4
2023-06-23T02:11:05.200Z,92.2
2023-06-23T02:21:05.166Z,93
2023-06-23T02:31:05.169Z,93.4
2023-06-23T02:41:05.091Z,93.8
2023-06-23T02:51:05.104Z,93.6
2023-06-23T03:01:05.030Z,94.2
2023-06-23T03:11:05.007Z,94.2
2023-06-23T03:21:04.954Z,94.4
2023-06-23T03:31:04.947Z,93.4
2023-06-23T03:41:04.896Z,93
2023-06-23T03:51:04.868Z,93.8
2023-06-23T04:01:04.834Z,93.6
2023-06-23T04:11:04.794Z,93.6
2023-06-23T04:21:04.774Z,93.4
2023-06-23T04:31:04.892Z,92.2
2023-06-23T04:41:04.703Z,92.2
2023-06-23T04:51:04.663Z,92
2023-06-23T05:01:04.633Z,92
2023-06-23T05:11:04.625Z,92
2023-06-23T05:21:04.631Z,91.6
2023-06-23T05:31:04.634Z,91.8
2023-06-23T05:41:04.683Z,91.8
2023-06-23T05:51:04.481Z,92
2023-06-23T06:01:04.445Z,91.4
2023-06-23T06:11:04.433Z,90.8
2023-06-23T06:21:04.361Z,89.6
2023-06-23T06:31:04.419Z,89.8
2023-06-23T06:41:04.314Z,89.4
2023-06-23T06:51:04.351Z,88.8
2023-06-23T07:01:04.308Z,87.2
2023-06-23T07:11:04.239Z,85.2
2023-06-23T07:21:04.248Z,84.6
2023-06-23T07:31:04.141Z,84.4
2023-06-23T07:41:04.115Z,84
2023-06-23T07:51:04.173Z,83.2
2023-06-23T08:01:04.037Z,81.4
2023-06-23T08:11:04.028Z,80.2
2023-06-23T08:21:03.973Z,80
2023-06-23T08:31:04.148Z,78.4
2023-06-23T08:41:03.995Z,72.6
2023-06-23T08:51:04.013Z,71.4
2023-06-23T09:01:03.833Z,69.2
2023-06-23T09:11:03.870Z,67.8
2023-06-23T09:31:03.728Z,64.8
2023-06-23T09:41:03.726Z,63
2023-06-23T09:51:03.662Z,62.8
2023-06-23T10:01:03.762Z,62
2023-06-23T10:11:03.758Z,62
2023-06-23T10:21:03.560Z,63.2
2023-06-23T10:31:03.537Z,62.2
2023-06-23T10:41:03.553Z,62
2023-06-23T10:51:03.456Z,62.4
2023-06-23T11:01:03.469Z,64.6
2023-06-23T11:11:03.377Z,68.2
2023-06-23T11:21:03.359Z,66
2023-06-23T11:31:03.365Z,63.8
2023-06-23T11:41:03.301Z,62
2023-06-23T11:51:03.385Z,58.4
2023-06-23T12:01:03.223Z,56.4
2023-06-23T12:11:03.265Z,54.8
2023-06-23T12:21:03.159Z,53.6
2023-06-23T12:41:03.248Z,48.6
2023-06-23T12:51:03.043Z,46
2023-06-23T13:01:03.012Z,45.2
2023-06-23T13:31:02.915Z,47.4
2023-06-23T14:01:02.812Z,44.6
2023-06-23T14:11:02.782Z,44.4
2023-06-23T14:21:02.764Z,45
2023-06-23T14:31:02.701Z,44.4
2023-06-23T14:41:02.723Z,44.2
2023-06-23T15:11:02.570Z,45.8
2023-06-23T15:21:02.530Z,45.8
2023-06-23T15:31:02.584Z,48.2
2023-06-23T15:41:02.439Z,47.2
2023-06-23T15:51:08.716Z,47.8
2023-06-23T16:11:02.390Z,51
2023-06-23T16:21:02.388Z,51.6
2023-06-23T16:31:02.281Z,51.8
2023-06-23T16:41:02.256Z,49.8
2023-06-23T17:11:02.232Z,47.6
2023-06-23T17:21:02.116Z,46.6
2023-06-23T17:31:02.084Z,46.2
2023-06-23T17:41:02.043Z,47.4
2023-06-23T17:51:02.099Z,48
2023-06-23T18:01:08.283Z,48.2
2023-06-23T18:11:14.537Z,49
2023-06-23T18:21:01.962Z,50.2
2023-06-23T18:21:49.477Z,50.2
2023-06-23T18:31:04.429Z,50.2
2023-06-23T18:41:02.740Z,52
2023-06-23T18:51:02.633Z,52.8
2023-06-23T19:01:02.709Z,55.2
2023-06-23T19:11:02.597Z,55.8
2023-06-23T19:21:02.505Z,57.4
2023-06-23T19:31:02.469Z,58.6
2023-06-23T19:41:02.443Z,60.8
2023-06-23T19:51:02.526Z,63.6
2023-06-23T20:01:02.365Z,65.2
2023-06-23T20:11:02.372Z,68.6
2023-06-23T20:31:02.254Z,73.8
2023-06-23T20:41:02.240Z,76.2
2023-06-23T20:51:02.271Z,77.6
2023-06-23T21:01:02.336Z,78.6
2023-06-23T21:11:02.406Z,79.4
2023-06-23T21:21:02.225Z,79.4
2023-06-23T21:31:02.247Z,79.4
2023-06-23T21:41:02.232Z,79.2
2023-06-23T22:01:01.949Z,79.8
2023-06-23T22:11:02.201Z,80.4
2023-06-23T22:21:02.065Z,81.4
2023-06-23T22:31:01.851Z,81.6
2023-06-23T22:41:02.022Z,82.4
2023-06-23T22:51:01.782Z,83.2
2023-06-23T23:01:01.850Z,83.6
2023-06-23T23:11:01.894Z,83.4
2023-06-23T23:21:01.846Z,84
2023-06-23T23:31:01.833Z,84.6
2023-06-23T23:41:01.828Z,86
2023-06-23T23:51:01.689Z,86.4
